createdAt,value
2022-08-18T00:01:02.558Z,14.47
2022-08-18T00:02:26.259Z,14.62
2022-08-18T00:03:56.401Z,14.31
2022-08-18T00:05:02.871Z,14.38
2022-08-18T00:06:14.696Z,14.35
2022-08-18T00:07:28.014Z,14.81
2022-08-18T00:08:38.437Z,15.12
2022-08-18T00:09:46.474Z,15.02
2022-08-18T00:10:54.657Z,14.82
2022-08-18T00:12:05.000Z,14.46
2022-08-18T00:13:12.410Z,14.54
2022-08-18T00:14:22.903Z,14.56
2022-08-18T00:15:29.628Z,14.30
2022-08-18T00:16:36.194Z,14.47
2022-08-18T00:17:42.589Z,14.57
2022-08-18T00:18:49.022Z,14.89
2022-08-18T00:19:56.254Z,14.90
2022-08-18T00:21:04.593Z,15.23
2022-08-18T00:22:15.534Z,15.39
2022-08-18T00:23:22.314Z,15.01
2022-08-18T00:24:31.719Z,15.05
2022-08-18T00:25:38.533Z,14.99
2022-08-18T00:26:44.335Z,15.09
2022-08-18T00:27:55.550Z,14.80
2022-08-18T00:29:01.671Z,15.03
2022-08-18T00:30:09.895Z,14.94
2022-08-18T00:31:18.722Z,15.09
2022-08-18T00:32:27.267Z,15.27
2022-08-18T00:33:33.839Z,15.69
2022-08-18T00:34:39.791Z,15.15
2022-08-18T00:35:47.469Z,14.71
2022-08-18T00:36:56.264Z,15.02
2022-08-18T00:38:09.424Z,15.57
2022-08-18T00:39:37.181Z,15.85
2022-08-18T00:40:54.216Z,15.70
2022-08-18T00:42:02.078Z,15.60
2022-08-18T00:43:15.122Z,15.50
2022-08-18T00:44:22.545Z,15.51
2022-08-18T00:45:37.639Z,15.48
2022-08-18T00:46:44.109Z,15.71
2022-08-18T00:47:50.319Z,15.78
2022-08-18T00:48:58.133Z,15.95
2022-08-18T00:50:05.213Z,15.93
2022-08-18T00:51:14.318Z,16.12
2022-08-18T00:52:21.485Z,16.00
2022-08-18T00:53:32.569Z,16.02
2022-08-18T00:54:38.725Z,16.38
2022-08-18T00:55:54.139Z,16.70
2022-08-18T00:57:05.469Z,16.56
2022-08-18T00:58:19.642Z,16.39
2022-08-18T00:59:31.826Z,16.56
2022-08-18T01:00:39.264Z,16.91
2022-08-18T01:01:47.907Z,16.86
2022-08-18T01:02:56.396Z,17.43
2022-08-18T01:04:15.390Z,17.90
2022-08-18T01:05:44.447Z,17.89
2022-08-18T01:07:02.097Z,17.99
2022-08-18T01:08:14.496Z,18.00
2022-08-18T01:09:21.681Z,17.80
2022-08-18T01:10:29.277Z,17.77
2022-08-18T01:11:35.622Z,17.79
2022-08-18T01:12:45.919Z,18.19
2022-08-18T01:13:54.719Z,18.21
2022-08-18T01:15:08.297Z,18.26
2022-08-18T01:16:57.494Z,18.37
2022-08-18T01:18:26.776Z,18.73
2022-08-18T01:19:51.353Z,18.66
2022-08-18T01:21:46.570Z,18.68
2022-08-18T01:23:02.032Z,19.01
2022-08-18T01:24:12.056Z,19.36
2022-08-18T01:25:43.093Z,19.79
2022-08-18T01:26:52.339Z,20.04
2022-08-18T01:28:00.715Z,19.88
2022-08-18T01:29:18.763Z,19.89
2022-08-18T01:30:27.426Z,20.12
2022-08-18T01:31:49.892Z,20.14
2022-08-18T01:33:02.659Z,20.11
2022-08-18T01:34:11.247Z,20.48
2022-08-18T01:35:18.250Z,20.65
2022-08-18T01:36:24.630Z,20.95
2022-08-18T01:37:30.693Z,21.03
2022-08-18T01:38:38.337Z,20.90
2022-08-18T01:41:06.276Z,21.09
2022-08-18T01:41:25.600Z,21.42
2022-08-18T01:42:36.343Z,21.64
2022-08-18T01:43:43.667Z,21.70
2022-08-18T01:44:54.055Z,21.81
2022-08-18T01:46:05.420Z,22.15
2022-08-18T01:47:15.271Z,22.48
2022-08-18T01:48:23.517Z,22.71
2022-08-18T01:49:29.929Z,22.80
2022-08-18T01:50:37.318Z,22.85
2022-08-18T01:51:46.170Z,23.18
2022-08-18T01:52:54.854Z,23.27
2022-08-18T01:54:01.539Z,23.12
2022-08-18T01:55:14.555Z,23.40
2022-08-18T01:56:22.029Z,23.67
2022-08-18T01:57:29.303Z,23.59
2022-08-18T01:58:36.536Z,23.75
2022-08-18T01:59:45.333Z,23.95
2022-08-18T02:00:52.870Z,24.24
2022-08-18T02:02:03.058Z,24.25
2022-08-18T02:03:12.724Z,24.29
2022-08-18T02:04:37.156Z,24.62
2022-08-18T02:05:51.396Z,25.17
2022-08-18T02:06:58.726Z,25.13
2022-08-18T02:08:07.056Z,25.26
2022-08-18T02:09:14.892Z,25.30
2022-08-18T02:10:34.326Z,25.40
2022-08-18T02:11:44.064Z,26.10
2022-08-18T02:12:58.126Z,25.95
2022-08-18T02:14:06.902Z,26.18
2022-08-18T02:15:14.722Z,26.78
2022-08-18T02:16:22.234Z,26.95
2022-08-18T02:17:34.103Z,27.03
2022-08-18T02:18:48.355Z,27.48
2022-08-18T02:20:01.558Z,27.34
2022-08-18T02:21:11.918Z,27.59
2022-08-18T02:22:21.746Z,27.40
2022-08-18T02:23:29.077Z,27.67
2022-08-18T02:24:34.956Z,27.56
2022-08-18T02:25:45.063Z,27.69
2022-08-18T02:26:54.047Z,28.12
2022-08-18T02:28:06.069Z,28.24
2022-08-18T02:29:13.492Z,28.62
2022-08-18T02:30:20.901Z,28.83
2022-08-18T02:31:34.293Z,28.48
2022-08-18T02:32:41.400Z,28.76
2022-08-18T02:33:51.926Z,28.63
2022-08-18T02:35:03.185Z,28.79
2022-08-18T02:36:13.764Z,28.86
2022-08-18T02:37:20.867Z,29.06
2022-08-18T02:38:27.504Z,29.53
2022-08-18T02:39:45.414Z,29.71
2022-08-18T02:40:58.679Z,29.73
2022-08-18T02:42:10.374Z,29.70
2022-08-18T02:43:21.358Z,29.84
2022-08-18T02:44:32.594Z,29.86
2022-08-18T02:45:47.000Z,30.09
2022-08-18T02:46:55.634Z,30.01
2022-08-18T02:48:06.998Z,30.10
2022-08-18T02:49:14.738Z,30.31
2022-08-18T02:50:22.094Z,30.29
2022-08-18T02:51:29.167Z,30.29
2022-08-18T02:52:36.786Z,30.65
2022-08-18T02:53:47.475Z,30.56
2022-08-18T02:54:55.177Z,30.56
2022-08-18T02:56:40.677Z,30.70
2022-08-18T02:57:54.503Z,30.94
2022-08-18T02:59:09.325Z,31.21
2022-08-18T03:00:19.259Z,31.54
2022-08-18T03:01:29.318Z,31.52
2022-08-18T03:02:39.904Z,31.61
2022-08-18T03:04:00.842Z,31.81
2022-08-18T03:05:10.856Z,32.00
2022-08-18T03:06:23.959Z,32.12
2022-08-18T03:07:31.053Z,32.23
2022-08-18T03:08:37.615Z,32.33
2022-08-18T03:09:45.070Z,32.61
2022-08-18T03:10:58.799Z,32.48
2022-08-18T03:12:09.187Z,32.56
2022-08-18T03:13:18.130Z,32.85
2022-08-18T03:14:24.893Z,32.88
2022-08-18T03:15:31.433Z,33.00
2022-08-18T03:16:38.418Z,33.13
2022-08-18T03:17:44.371Z,33.25
2022-08-18T03:18:50.868Z,33.43
2022-08-18T03:20:00.932Z,33.38
2022-08-18T03:21:25.319Z,33.46
2022-08-18T03:22:33.820Z,33.53
2022-08-18T03:23:41.888Z,33.60
2022-08-18T03:24:50.836Z,33.72
2022-08-18T03:25:58.785Z,33.75
2022-08-18T03:27:08.530Z,33.96
2022-08-18T03:28:20.629Z,33.89
2022-08-18T03:29:32.437Z,33.95
2022-08-18T03:30:40.021Z,34.19
2022-08-18T03:31:50.454Z,34.37
2022-08-18T03:32:59.205Z,34.47
2022-08-18T03:34:09.301Z,34.45
2022-08-18T03:35:16.201Z,34.38
2022-08-18T03:36:27.604Z,34.54
2022-08-18T03:37:34.386Z,34.45
2022-08-18T03:38:47.468Z,34.59
2022-08-18T03:40:04.488Z,34.60
2022-08-18T03:41:17.775Z,34.97
2022-08-18T03:42:45.091Z,34.90
2022-08-18T03:43:53.482Z,34.90
2022-08-18T03:45:00.882Z,34.88
2022-08-18T03:46:23.924Z,34.88
2022-08-18T03:47:31.008Z,34.95
2022-08-18T03:48:41.392Z,35.07
2022-08-18T03:49:48.571Z,35.24
2022-08-18T03:50:56.255Z,35.58
2022-08-18T03:52:05.257Z,35.75
2022-08-18T03:53:14.459Z,35.86
2022-08-18T03:54:24.477Z,35.90
2022-08-18T03:55:32.892Z,35.94
2022-08-18T03:56:40.005Z,35.89
2022-08-18T03:57:46.554Z,35.86
2022-08-18T03:58:58.611Z,35.76
2022-08-18T04:00:06.747Z,35.69
2022-08-18T04:01:16.410Z,35.63
2022-08-18T04:02:34.816Z,35.49
2022-08-18T04:03:40.871Z,35.49
2022-08-18T04:04:49.058Z,35.48
2022-08-18T04:05:59.541Z,35.21
2022-08-18T04:07:11.755Z,34.72
2022-08-18T04:08:21.552Z,34.57
2022-08-18T04:09:29.867Z,34.43
2022-08-18T04:10:36.444Z,34.47
2022-08-18T04:11:44.840Z,34.22
2022-08-18T04:12:52.914Z,34.24
2022-08-18T04:14:01.063Z,34.33
2022-08-18T04:15:12.177Z,34.26
2022-08-18T04:16:21.274Z,34.19
2022-08-18T04:17:28.676Z,34.26
2022-08-18T04:18:39.382Z,34.12
2022-08-18T04:19:46.313Z,34.10
2022-08-18T04:20:59.089Z,34.06
2022-08-18T04:22:09.563Z,34.12
2022-08-18T04:23:24.791Z,34.18
2022-08-18T04:24:33.475Z,34.20
2022-08-18T04:25:41.074Z,34.39
2022-08-18T04:26:48.356Z,34.64
2022-08-18T04:28:01.903Z,34.37
2022-08-18T04:29:09.038Z,34.12
2022-08-18T04:30:17.981Z,33.76
2022-08-18T04:31:25.600Z,33.53
2022-08-18T04:32:32.856Z,33.37
2022-08-18T04:33:39.613Z,33.28
2022-08-18T04:34:50.869Z,32.48
2022-08-18T04:36:04.621Z,32.15
2022-08-18T04:37:12.220Z,31.82
2022-08-18T04:38:23.900Z,31.48
2022-08-18T04:39:35.116Z,30.87
2022-08-18T04:40:43.078Z,30.17
2022-08-18T04:41:49.789Z,29.67
2022-08-18T04:42:57.619Z,29.16
2022-08-18T04:44:07.041Z,28.98
2022-08-18T04:45:14.434Z,28.62
2022-08-18T04:46:24.137Z,28.29
2022-08-18T04:47:32.174Z,28.26
2022-08-18T04:48:41.181Z,28.25
2022-08-18T04:49:47.963Z,28.93
2022-08-18T04:50:55.791Z,29.08
2022-08-18T04:52:38.787Z,29.55
2022-08-18T04:53:51.218Z,29.99
2022-08-18T04:54:58.867Z,30.03
2022-08-18T04:56:16.799Z,30.14
2022-08-18T04:57:33.636Z,30.33
2022-08-18T04:58:42.112Z,30.47
2022-08-18T04:59:52.809Z,30.68
2022-08-18T05:01:02.761Z,30.84
2022-08-18T05:02:14.513Z,30.94
2022-08-18T05:03:22.830Z,31.25
2022-08-18T05:04:29.919Z,31.51
2022-08-18T05:05:36.172Z,31.47
2022-08-18T05:06:44.190Z,32.03
2022-08-18T05:07:50.874Z,32.31
2022-08-18T05:09:00.693Z,33.02
2022-08-18T05:10:08.550Z,33.94
2022-08-18T05:11:16.358Z,33.91
2022-08-18T05:12:26.525Z,33.92
2022-08-18T05:13:32.978Z,34.26
2022-08-18T05:14:39.017Z,34.51
2022-08-18T05:16:08.979Z,34.34
2022-08-18T05:17:14.439Z,34.87
2022-08-18T05:18:25.026Z,35.40
2022-08-18T05:19:36.215Z,36.06
2022-08-18T05:20:50.464Z,36.52
2022-08-18T05:22:00.112Z,36.68
2022-08-18T05:23:11.071Z,36.93
2022-08-18T05:24:18.459Z,37.27
2022-08-18T05:25:24.727Z,37.94
2022-08-18T05:26:30.886Z,38.41
2022-08-18T05:27:40.004Z,38.95
2022-08-18T05:28:46.140Z,39.34
2022-08-18T05:29:52.730Z,39.93
2022-08-18T05:31:00.584Z,40.18
2022-08-18T05:32:09.091Z,40.51
2022-08-18T05:33:16.200Z,40.89
2022-08-18T05:34:24.842Z,40.99
2022-08-18T05:35:37.835Z,41.35
2022-08-18T05:37:27.510Z,41.63
2022-08-18T05:38:43.366Z,42.12
2022-08-18T05:40:04.270Z,42.13
2022-08-18T05:41:21.679Z,42.46
2022-08-18T05:42:29.367Z,42.60
2022-08-18T05:43:35.243Z,42.93
2022-08-18T05:44:45.331Z,42.97
2022-08-18T05:45:52.440Z,43.20
2022-08-18T05:47:28.859Z,43.38
2022-08-18T05:48:39.800Z,43.57
2022-08-18T05:49:49.948Z,43.74
2022-08-18T05:50:59.152Z,43.82
2022-08-18T05:52:10.394Z,43.72
2022-08-18T05:53:16.570Z,44.01
2022-08-18T05:54:44.978Z,43.97
2022-08-18T05:56:20.429Z,44.27
2022-08-18T05:57:28.099Z,44.90
2022-08-18T05:58:45.737Z,44.66
2022-08-18T05:59:53.125Z,44.72
2022-08-18T06:01:10.708Z,45.22
2022-08-18T06:03:01.417Z,44.89
2022-08-18T06:04:22.018Z,44.70
2022-08-18T06:05:37.495Z,44.96
2022-08-18T06:06:47.655Z,44.88
2022-08-18T06:08:00.579Z,44.82
2022-08-18T06:09:30.495Z,45.02
2022-08-18T06:10:37.988Z,44.98
2022-08-18T06:11:44.308Z,45.47
2022-08-18T06:13:09.831Z,45.72
2022-08-18T06:14:16.164Z,45.76
2022-08-18T06:15:39.973Z,46.04
2022-08-18T06:17:15.401Z,46.01
2022-08-18T06:18:56.357Z,45.77
2022-08-18T06:20:24.919Z,46.07
2022-08-18T06:21:52.488Z,46.10
2022-08-18T06:23:13.953Z,46.18
2022-08-18T06:24:35.606Z,46.51
2022-08-18T06:25:59.086Z,46.76
2022-08-18T06:27:24.615Z,46.93
2022-08-18T06:28:59.788Z,47.31
2022-08-18T06:30:26.524Z,46.84
2022-08-18T06:31:47.769Z,47.07
2022-08-18T06:33:12.501Z,47.06
2022-08-18T06:35:04.308Z,47.17
2022-08-18T06:36:23.661Z,46.81
2022-08-18T06:38:26.217Z,46.79
2022-08-18T06:39:45.351Z,46.78
2022-08-18T06:41:05.163Z,46.85
2022-08-18T06:42:14.395Z,46.84
2022-08-18T06:43:22.817Z,46.93
2022-08-18T06:44:46.647Z,47.15
2022-08-18T06:45:55.548Z,47.27
2022-08-18T06:47:05.732Z,47.28
2022-08-18T06:48:34.211Z,47.27
2022-08-18T06:49:47.989Z,47.16
2022-08-18T06:51:01.863Z,46.94
2022-08-18T06:52:52.091Z,46.78
2022-08-18T06:54:06.880Z,46.71
2022-08-18T06:55:18.405Z,46.52
2022-08-18T06:56:45.828Z,46.32
2022-08-18T06:57:59.990Z,46.15
2022-08-18T06:59:27.983Z,46.05
2022-08-18T07:00:37.814Z,45.98
2022-08-18T07:01:47.015Z,45.94
2022-08-18T07:03:14.865Z,46.01
2022-08-18T07:04:41.956Z,45.98
2022-08-18T07:06:28.702Z,45.88
2022-08-18T07:07:40.859Z,46.00
2022-08-18T07:08:47.205Z,45.63
2022-08-18T07:09:54.298Z,45.77
2022-08-18T07:11:26.576Z,45.77
2022-08-18T07:12:34.136Z,45.73
2022-08-18T07:13:42.370Z,45.60
2022-08-18T07:14:58.148Z,45.69
2022-08-18T07:16:34.497Z,45.53
2022-08-18T07:17:52.844Z,45.17
2022-08-18T07:19:22.588Z,44.89
2022-08-18T07:20:31.251Z,44.69
2022-08-18T07:21:39.549Z,44.46
2022-08-18T07:23:08.509Z,44.30
2022-08-18T07:24:34.957Z,44.16
2022-08-18T07:25:45.501Z,44.02
2022-08-18T07:27:04.040Z,43.76
2022-08-18T07:28:39.721Z,43.27
2022-08-18T07:30:15.608Z,43.17
2022-08-18T07:31:50.918Z,43.27
2022-08-18T07:33:29.070Z,43.24
2022-08-18T07:34:44.557Z,43.20
2022-08-18T07:36:06.322Z,43.25
2022-08-18T07:37:18.438Z,43.22
2022-08-18T07:38:46.677Z,43.48
2022-08-18T07:40:02.356Z,43.44
2022-08-18T07:41:28.868Z,43.39
2022-08-18T07:43:01.452Z,43.80
2022-08-18T07:44:53.286Z,44.04
2022-08-18T07:46:03.988Z,43.80
2022-08-18T07:47:25.345Z,43.94
2022-08-18T07:48:38.247Z,44.25
2022-08-18T07:50:16.639Z,44.70
2022-08-18T07:51:45.587Z,44.71
2022-08-18T07:53:13.147Z,44.64
2022-08-18T07:54:49.438Z,45.03
2022-08-18T07:56:00.808Z,45.37
2022-08-18T07:57:20.982Z,45.35
2022-08-18T07:58:49.508Z,45.36
2022-08-18T08:00:35.124Z,45.18
2022-08-18T08:02:38.709Z,45.50
2022-08-18T08:04:25.543Z,45.41
2022-08-18T08:05:53.895Z,44.63
2022-08-18T08:07:58.617Z,44.39
2022-08-18T08:09:30.735Z,43.64
2022-08-18T08:11:12.055Z,42.87
2022-08-18T08:13:12.950Z,43.25
2022-08-18T08:14:47.816Z,45.21
2022-08-18T08:15:59.855Z,45.47
2022-08-18T08:17:35.027Z,45.56
2022-08-18T08:18:59.719Z,45.35
2022-08-18T08:20:12.930Z,45.55
2022-08-18T08:21:22.882Z,45.55
2022-08-18T08:23:25.680Z,45.93
2022-08-18T08:25:13.554Z,45.94
2022-08-18T08:27:01.618Z,45.48
2022-08-18T08:28:32.158Z,45.14
2022-08-18T08:29:50.579Z,45.01
2022-08-18T08:31:35.435Z,44.87
2022-08-18T08:33:03.695Z,44.25
2022-08-18T08:34:26.245Z,44.41
2022-08-18T08:35:50.064Z,44.27
2022-08-18T08:37:05.827Z,44.08
2022-08-18T08:38:39.889Z,43.92
2022-08-18T08:40:23.949Z,43.75
2022-08-18T08:41:57.861Z,43.66
2022-08-18T08:43:32.551Z,43.47
2022-08-18T08:44:59.777Z,43.35
2022-08-18T08:46:41.184Z,43.31
2022-08-18T08:48:08.469Z,43.38
2022-08-18T08:49:34.751Z,43.51
2022-08-18T08:50:47.428Z,43.75
2022-08-18T08:52:19.010Z,43.62
2022-08-18T08:53:39.930Z,43.69
2022-08-18T08:55:08.605Z,43.87
2022-08-18T08:56:16.095Z,43.85
2022-08-18T08:57:28.515Z,43.96
2022-08-18T08:58:54.513Z,43.94
2022-08-18T09:00:03.528Z,43.94
2022-08-18T09:01:17.186Z,43.96
2022-08-18T09:02:55.158Z,43.86
2022-08-18T09:04:09.508Z,44.14
2022-08-18T09:05:24.212Z,44.90
2022-08-18T09:06:48.482Z,45.70
2022-08-18T09:08:23.114Z,46.12
2022-08-18T09:10:09.353Z,46.46
2022-08-18T09:11:28.440Z,46.68
2022-08-18T09:12:53.998Z,47.07
2022-08-18T09:14:09.375Z,47.08
2022-08-18T09:15:18.896Z,47.34
2022-08-18T09:17:01.593Z,47.50
2022-08-18T09:18:23.125Z,47.89
2022-08-18T09:19:43.287Z,48.09
2022-08-18T09:21:08.648Z,47.98
2022-08-18T09:22:49.352Z,48.08
2022-08-18T09:24:05.909Z,48.46
2022-08-18T09:25:44.554Z,48.42
2022-08-18T09:27:05.617Z,48.14
2022-08-18T09:28:18.702Z,48.58
2022-08-18T09:31:10.340Z,48.79
2022-08-18T09:32:23.933Z,48.96
2022-08-18T09:33:44.992Z,48.77
2022-08-18T09:35:20.353Z,48.76
2022-08-18T09:36:49.299Z,49.40
2022-08-18T09:38:39.902Z,50.15
2022-08-18T09:41:02.004Z,50.62
2022-08-18T09:42:16.343Z,50.95
2022-08-18T09:43:39.969Z,51.54
2022-08-18T09:44:48.492Z,51.76
2022-08-18T09:45:57.499Z,51.48
2022-08-18T09:47:06.504Z,51.43
2022-08-18T09:48:20.880Z,51.62
2022-08-18T09:50:05.778Z,52.28
2022-08-18T09:51:24.026Z,52.62
2022-08-18T09:52:39.259Z,52.61
2022-08-18T09:53:54.502Z,52.76
2022-08-18T09:55:10.755Z,53.11
2022-08-18T09:58:47.103Z,53.23
2022-08-18T10:00:15.848Z,53.34
2022-08-18T10:01:36.215Z,53.82
2022-08-18T10:02:48.722Z,53.90
2022-08-18T10:04:29.092Z,53.89
2022-08-18T10:05:39.423Z,54.06
2022-08-18T10:06:48.735Z,54.12
2022-08-18T10:08:03.674Z,53.92
2022-08-18T10:09:39.000Z,53.89
2022-08-18T10:12:42.091Z,54.28
2022-08-18T10:14:12.267Z,54.44
2022-08-18T10:15:57.261Z,53.98
2022-08-18T10:17:25.837Z,53.74
2022-08-18T10:18:50.284Z,53.74
2022-08-18T10:20:28.572Z,53.64
2022-08-18T10:22:09.478Z,53.53
2022-08-18T10:23:48.118Z,53.49
2022-08-18T10:25:14.043Z,53.40
2022-08-18T10:26:41.734Z,53.30
2022-08-18T10:28:06.146Z,53.30
2022-08-18T10:29:33.032Z,53.06
2022-08-18T10:32:44.283Z,52.80
2022-08-18T10:34:18.971Z,52.67
2022-08-18T10:36:03.133Z,52.52
2022-08-18T10:37:29.110Z,52.42
2022-08-18T10:38:46.050Z,52.42
2022-08-18T10:40:02.417Z,52.40
2022-08-18T10:41:30.767Z,52.76
2022-08-18T10:42:56.978Z,52.92
2022-08-18T10:44:15.523Z,52.71
2022-08-18T10:45:37.087Z,52.62
2022-08-18T10:46:46.791Z,52.53
2022-08-18T10:48:18.569Z,53.09
2022-08-18T10:49:33.832Z,53.17
2022-08-18T10:51:07.447Z,53.34
2022-08-18T10:53:24.045Z,53.97
2022-08-18T10:54:51.911Z,54.65
2022-08-18T10:56:10.477Z,54.60
2022-08-18T10:57:44.125Z,54.52
2022-08-18T10:58:55.268Z,54.89
2022-08-18T11:00:08.497Z,54.71
2022-08-18T11:01:35.863Z,54.50
2022-08-18T11:03:40.117Z,54.77
2022-08-18T11:04:59.116Z,54.85
2022-08-18T11:06:17.900Z,54.75
2022-08-18T11:07:44.706Z,54.89
2022-08-18T11:08:55.370Z,55.01
2022-08-18T11:12:16.964Z,54.77
2022-08-18T11:14:15.350Z,54.81
2022-08-18T11:15:46.748Z,54.86
2022-08-18T11:17:03.514Z,55.07
2022-08-18T11:18:42.816Z,55.37
2022-08-18T11:19:50.903Z,55.18
2022-08-18T11:21:25.494Z,55.01
2022-08-18T11:22:35.627Z,55.18
2022-08-18T11:23:43.224Z,55.37
2022-08-18T11:24:50.323Z,55.31
2022-08-18T11:25:58.563Z,55.73
2022-08-18T11:28:35.951Z,57.01
2022-08-18T11:29:46.539Z,57.43
2022-08-18T11:30:53.599Z,57.49
2022-08-18T11:32:03.997Z,57.76
2022-08-18T11:33:15.108Z,57.73
2022-08-18T11:34:52.074Z,57.99
2022-08-18T11:36:01.849Z,58.25
2022-08-18T11:37:48.843Z,58.39
2022-08-18T11:38:57.311Z,58.43
2022-08-18T11:40:04.932Z,58.65
2022-08-18T11:41:20.859Z,58.77
2022-08-18T11:42:34.486Z,58.64
2022-08-18T11:43:43.040Z,58.53
2022-08-18T11:44:50.243Z,58.63
2022-08-18T11:46:12.808Z,58.78
2022-08-18T11:47:20.135Z,59.01
2022-08-18T11:48:52.269Z,59.33
2022-08-18T11:50:20.697Z,59.66
2022-08-18T11:51:29.661Z,59.80
2022-08-18T11:52:48.047Z,59.89
2022-08-18T11:54:24.611Z,60.00
2022-08-18T11:55:34.306Z,60.07
2022-08-18T11:56:40.916Z,60.04
2022-08-18T11:57:59.154Z,60.07
2022-08-18T11:59:52.511Z,60.07
2022-08-18T12:01:01.664Z,60.65
2022-08-18T12:02:11.516Z,60.90
2022-08-18T12:03:46.180Z,61.27
2022-08-18T12:04:56.798Z,61.73
2022-08-18T12:06:27.842Z,62.07
2022-08-18T12:07:36.452Z,62.01
2022-08-18T12:08:58.176Z,62.03
2022-08-18T12:10:19.392Z,62.13
2022-08-18T12:11:41.320Z,62.61
2022-08-18T12:12:51.921Z,62.54
2022-08-18T12:14:30.346Z,62.37
2022-08-18T12:17:09.144Z,62.66
2022-08-18T12:18:26.312Z,62.68
2022-08-18T12:19:45.033Z,62.93
2022-08-18T12:20:53.009Z,63.09
2022-08-18T12:22:11.031Z,63.05
2022-08-18T12:23:22.249Z,63.12
2022-08-18T12:24:36.544Z,63.03
2022-08-18T12:26:01.929Z,62.88
2022-08-18T12:27:20.921Z,62.82
2022-08-18T12:28:29.477Z,63.03
2022-08-18T12:31:14.881Z,62.76
2022-08-18T12:32:46.426Z,63.12
2022-08-18T12:34:01.194Z,63.50
2022-08-18T12:35:10.822Z,63.64
2022-08-18T12:36:17.369Z,63.86
2022-08-18T12:37:58.246Z,63.73
2022-08-18T12:38:56.716Z,63.55
2022-08-18T12:40:05.962Z,63.52
2022-08-18T12:41:18.629Z,63.38
2022-08-18T12:42:32.321Z,62.83
2022-08-18T12:43:37.713Z,62.19
2022-08-18T12:44:44.422Z,62.00
2022-08-18T12:45:50.310Z,61.82
2022-08-18T12:46:56.466Z,61.72
2022-08-18T12:49:30.568Z,61.41
2022-08-18T12:50:49.615Z,61.72
2022-08-18T12:52:03.529Z,61.68
2022-08-18T12:53:12.316Z,61.87
2022-08-18T12:54:20.097Z,61.97
2022-08-18T12:55:26.546Z,61.87
2022-08-18T12:56:34.129Z,62.50
2022-08-18T12:57:52.117Z,62.35
2022-08-18T12:59:04.136Z,62.07
2022-08-18T13:00:16.874Z,62.07
2022-08-18T13:01:28.332Z,62.50
2022-08-18T13:02:34.399Z,62.30
2022-08-18T13:03:42.619Z,62.20
2022-08-18T13:04:49.816Z,62.12
2022-08-18T13:06:00.203Z,61.99
2022-08-18T13:07:12.682Z,62.13
2022-08-18T13:08:30.467Z,62.37
2022-08-18T13:09:48.588Z,62.34
2022-08-18T13:11:21.323Z,62.11
2022-08-18T13:12:33.463Z,62.06
2022-08-18T13:14:56.242Z,62.46
2022-08-18T13:16:09.067Z,62.69
2022-08-18T13:17:33.040Z,62.62
2022-08-18T13:18:45.329Z,62.64
2022-08-18T13:19:51.904Z,62.66
2022-08-18T13:21:03.336Z,62.55
2022-08-18T13:22:09.717Z,62.37
2022-08-18T13:23:20.061Z,62.56
2022-08-18T13:24:33.988Z,62.55
2022-08-18T13:25:42.310Z,62.62
2022-08-18T13:26:56.835Z,62.50
2022-08-18T13:28:02.888Z,62.67
2022-08-18T13:29:10.252Z,62.74
2022-08-18T13:30:31.144Z,62.94
2022-08-18T13:31:40.115Z,63.02
2022-08-18T13:32:58.803Z,62.90
2022-08-18T13:34:11.848Z,62.81
2022-08-18T13:35:24.109Z,62.89
2022-08-18T13:36:46.145Z,62.77
2022-08-18T13:37:54.931Z,62.72
2022-08-18T13:39:04.698Z,62.34
2022-08-18T13:40:15.500Z,61.98
2022-08-18T13:42:50.652Z,61.14
2022-08-18T13:44:00.060Z,60.98
2022-08-18T13:45:23.263Z,60.97
2022-08-18T13:46:34.612Z,60.75
2022-08-18T13:47:40.304Z,60.61
2022-08-18T13:48:48.864Z,60.25
2022-08-18T13:49:58.860Z,59.84
2022-08-18T13:51:05.690Z,59.66
2022-08-18T13:52:32.999Z,59.49
2022-08-18T13:53:51.154Z,58.99
2022-08-18T13:55:13.603Z,58.57
2022-08-18T13:56:21.326Z,58.38
2022-08-18T13:57:39.554Z,57.97
2022-08-18T13:58:53.200Z,57.44
2022-08-18T14:00:01.410Z,57.01
2022-08-18T14:02:38.972Z,56.17
2022-08-18T14:03:47.138Z,55.34
2022-08-18T14:04:56.712Z,55.03
2022-08-18T14:06:03.888Z,54.63
2022-08-18T14:07:18.680Z,54.32
2022-08-18T14:08:26.458Z,53.65
2022-08-18T14:09:36.497Z,53.45
2022-08-18T14:10:43.907Z,53.32
2022-08-18T14:11:51.263Z,53.09
2022-08-18T14:13:00.833Z,52.92
2022-08-18T14:14:28.037Z,52.84
2022-08-18T14:15:36.901Z,52.85
2022-08-18T14:16:42.787Z,52.48
2022-08-18T14:17:48.681Z,52.55
2022-08-18T14:19:18.018Z,52.42
2022-08-18T14:20:48.346Z,52.50
2022-08-18T14:22:13.705Z,52.78
2022-08-18T14:23:40.033Z,53.00
2022-08-18T14:25:22.969Z,52.83
2022-08-18T14:26:50.738Z,52.74
2022-08-18T14:27:57.234Z,51.84
2022-08-18T14:29:05.370Z,51.93
2022-08-18T14:30:13.762Z,51.43
2022-08-18T14:31:23.218Z,50.65
2022-08-18T14:32:31.798Z,50.06
2022-08-18T14:33:50.621Z,49.46
2022-08-18T14:35:33.597Z,48.95
2022-08-18T14:36:30.632Z,48.66
2022-08-18T14:37:36.433Z,48.40
2022-08-18T14:38:42.596Z,48.21
2022-08-18T14:39:50.376Z,47.49
2022-08-18T14:41:03.158Z,46.66
2022-08-18T14:42:12.910Z,46.47
2022-08-18T14:43:25.800Z,45.44
2022-08-18T14:44:32.813Z,44.77
2022-08-18T14:45:38.699Z,44.42
2022-08-18T14:46:54.272Z,44.52
2022-08-18T14:48:06.644Z,44.28
2022-08-18T14:49:28.185Z,44.31
2022-08-18T14:50:38.547Z,44.00
2022-08-18T14:51:44.735Z,43.80
2022-08-18T14:52:51.266Z,43.82
2022-08-18T14:53:59.110Z,43.88
2022-08-18T14:55:06.995Z,43.98
2022-08-18T14:56:15.594Z,44.03
2022-08-18T14:57:24.019Z,43.79
2022-08-18T14:58:33.289Z,43.62
2022-08-18T14:59:40.393Z,42.99
2022-08-18T15:00:50.110Z,42.21
2022-08-18T15:02:03.859Z,41.86
2022-08-18T15:03:13.323Z,41.96
2022-08-18T15:04:21.695Z,41.89
2022-08-18T15:05:33.910Z,41.53
2022-08-18T15:06:43.034Z,40.75
2022-08-18T15:07:49.088Z,40.63
2022-08-18T15:08:56.955Z,40.80
2022-08-18T15:10:15.051Z,40.89
2022-08-18T15:11:31.938Z,40.34
2022-08-18T15:12:41.875Z,40.14
2022-08-18T15:13:49.490Z,40.40
2022-08-18T15:14:58.498Z,40.23
2022-08-18T15:16:14.018Z,40.24
2022-08-18T15:17:21.669Z,40.19
2022-08-18T15:18:29.886Z,40.22
2022-08-18T15:20:00.662Z,40.08
2022-08-18T15:21:34.979Z,39.71
2022-08-18T15:23:05.000Z,39.57
2022-08-18T15:24:29.986Z,39.69
2022-08-18T15:25:46.297Z,39.84
2022-08-18T15:27:05.641Z,39.93
2022-08-18T15:28:27.559Z,39.91
2022-08-18T15:29:34.365Z,39.78
2022-08-18T15:30:44.830Z,39.69
2022-08-18T15:31:55.466Z,39.57
2022-08-18T15:33:08.792Z,39.32
2022-08-18T15:34:23.595Z,39.17
2022-08-18T15:35:36.335Z,38.97
2022-08-18T15:36:47.961Z,38.93
2022-08-18T15:37:57.365Z,38.99
2022-08-18T15:39:05.678Z,38.99
2022-08-18T15:40:21.884Z,38.59
2022-08-18T15:41:44.656Z,38.19
2022-08-18T15:43:01.319Z,38.28
2022-08-18T15:44:08.495Z,37.46
2022-08-18T15:45:16.878Z,37.51
2022-08-18T15:46:24.263Z,37.00
2022-08-18T15:47:35.935Z,36.72
2022-08-18T15:48:41.977Z,36.42
2022-08-18T15:49:49.313Z,36.17
2022-08-18T15:51:11.425Z,35.89
2022-08-18T15:52:21.192Z,36.16
2022-08-18T15:53:30.235Z,36.22
2022-08-18T15:54:36.737Z,36.06
2022-08-18T15:55:44.302Z,36.31
2022-08-18T15:56:58.304Z,36.11
2022-08-18T15:58:11.114Z,35.49
2022-08-18T15:59:23.507Z,34.78
2022-08-18T16:00:45.582Z,34.38
2022-08-18T16:01:54.378Z,34.05
2022-08-18T16:03:09.227Z,33.98
2022-08-18T16:04:16.827Z,33.85
2022-08-18T16:05:25.479Z,33.55
2022-08-18T16:06:32.743Z,33.87
2022-08-18T16:07:41.095Z,34.05
2022-08-18T16:08:55.618Z,34.29
2022-08-18T16:10:03.028Z,34.15
2022-08-18T16:11:24.596Z,34.07
2022-08-18T16:12:45.719Z,33.50
2022-08-18T16:13:54.332Z,33.00
2022-08-18T16:15:07.598Z,32.68
2022-08-18T16:16:17.132Z,32.75
2022-08-18T16:17:43.370Z,32.45
2022-08-18T16:18:55.297Z,32.09
2022-08-18T16:20:02.792Z,31.98
2022-08-18T16:21:12.430Z,32.13
2022-08-18T16:22:21.811Z,32.48
2022-08-18T16:23:32.822Z,32.48
2022-08-18T16:24:45.102Z,32.24
2022-08-18T16:26:04.494Z,32.07
2022-08-18T16:27:14.065Z,31.63
2022-08-18T16:28:34.965Z,31.02
2022-08-18T16:29:50.174Z,30.99
2022-08-18T16:30:56.330Z,31.16
2022-08-18T16:32:03.725Z,31.00
2022-08-18T16:33:11.729Z,30.53
2022-08-18T16:34:18.038Z,30.16
2022-08-18T16:35:25.654Z,29.82
2022-08-18T16:36:32.155Z,29.74
2022-08-18T16:37:38.589Z,30.07
2022-08-18T16:38:47.158Z,29.94
2022-08-18T16:39:56.864Z,30.26